createdAt,value
2023-04-20T00:00:29.913Z,47.30
2023-04-20T00:02:58.262Z,47.30
2023-04-20T00:05:26.255Z,47.20
2023-04-20T00:07:54.601Z,47.20
2023-04-20T00:10:22.322Z,47.10
2023-04-20T00:12:50.094Z,47.00
2023-04-20T00:15:17.737Z,46.90
2023-04-20T00:17:48.481Z,46.80
2023-04-20T00:20:16.265Z,46.80
2023-04-20T00:22:44.188Z,46.70
2023-04-20T00:25:11.827Z,46.60
2023-04-20T00:27:39.487Z,46.50
2023-04-20T00:30:08.363Z,46.50
2023-04-20T00:32:37.184Z,46.40
2023-04-20T00:35:07.105Z,46.40
2023-04-20T00:37:34.815Z,46.20
2023-04-20T00:40:02.465Z,46.20
2023-04-20T00:42:31.678Z,46.20
2023-04-20T00:44:59.345Z,46.10
2023-04-20T00:47:27.065Z,46.10
2023-04-20T00:49:55.082Z,46.00
2023-04-20T00:52:24.081Z,45.90
2023-04-20T00:54:51.798Z,45.90
2023-04-20T00:57:22.402Z,45.80
2023-04-20T00:59:50.290Z,45.70
2023-04-20T01:02:18.244Z,45.70
2023-04-20T01:04:46.450Z,45.70
2023-04-20T01:07:14.132Z,45.70
2023-04-20T01:09:43.838Z,45.60
2023-04-20T01:12:11.675Z,45.60
2023-04-20T01:14:39.334Z,45.60
2023-04-20T01:17:07.010Z,45.50
2023-04-20T01:19:34.740Z,45.50
2023-04-20T01:22:03.356Z,45.50
2023-04-20T01:24:32.368Z,45.50
2023-04-20T01:27:01.372Z,45.50
2023-04-20T01:29:29.706Z,45.50
2023-04-20T01:31:57.570Z,45.40
2023-04-20T01:34:25.800Z,45.40
2023-04-20T01:36:54.701Z,45.50
2023-04-20T01:39:22.387Z,45.50
2023-04-20T01:41:51.582Z,45.50
2023-04-20T01:44:19.277Z,45.40
2023-04-20T01:46:47.018Z,45.40
2023-04-20T01:49:14.728Z,45.40
2023-04-20T01:51:42.421Z,45.40
2023-04-20T01:54:10.092Z,45.40
2023-04-20T01:56:37.770Z,45.40
2023-04-20T01:59:06.790Z,45.40
2023-04-20T02:01:35.055Z,45.40
2023-04-20T02:04:02.787Z,45.30
2023-04-20T02:06:31.913Z,45.30
2023-04-20T02:09:00.978Z,45.30
2023-04-20T02:11:28.653Z,45.30
2023-04-20T02:13:56.363Z,45.30
2023-04-20T02:16:25.569Z,45.20
2023-04-20T02:18:54.620Z,45.20
2023-04-20T02:21:22.366Z,45.20
2023-04-20T02:23:50.301Z,45.20
2023-04-20T02:26:18.058Z,45.20
2023-04-20T02:28:45.780Z,45.20
2023-04-20T02:31:13.458Z,45.20
2023-04-20T02:33:42.737Z,45.20
2023-04-20T02:36:10.772Z,45.20
2023-04-20T02:38:41.221Z,45.20
2023-04-20T02:41:08.875Z,45.10
2023-04-20T02:43:36.645Z,45.10
2023-04-20T02:46:05.701Z,45.10
2023-04-20T02:48:33.468Z,45.10
2023-04-20T02:51:02.571Z,45.00
2023-04-20T02:53:35.933Z,45.10
2023-04-20T02:56:13.967Z,45.10
2023-04-20T02:58:53.421Z,45.10
2023-04-20T03:01:29.114Z,45.10
2023-04-20T03:04:06.437Z,45.00
2023-04-20T03:06:40.420Z,45.00
2023-04-20T03:09:11.289Z,45.10
2023-04-20T03:11:58.922Z,45.10
2023-04-20T03:14:44.265Z,45.10
2023-04-20T03:17:12.345Z,45.10
2023-04-20T03:19:40.608Z,45.10
2023-04-20T03:22:09.913Z,45.20
2023-04-20T03:24:38.402Z,45.20
2023-04-20T03:27:16.490Z,45.20
2023-04-20T03:30:01.920Z,45.20
2023-04-20T03:32:32.680Z,45.30
2023-04-20T03:35:00.988Z,45.40
2023-04-20T03:37:30.684Z,45.30
2023-04-20T03:39:58.340Z,45.40
2023-04-20T03:42:26.313Z,45.40
2023-04-20T03:44:55.542Z,45.40
2023-04-20T03:47:23.253Z,45.50
2023-04-20T03:49:51.450Z,45.50
2023-04-20T03:52:19.155Z,45.50
2023-04-20T03:54:48.139Z,45.50
2023-04-20T03:57:17.619Z,45.60
2023-04-20T03:59:45.395Z,45.60
2023-04-20T04:02:17.603Z,45.70
2023-04-20T04:04:47.565Z,45.70
2023-04-20T04:07:15.410Z,45.70
2023-04-20T04:09:44.464Z,45.70
2023-04-20T04:12:14.962Z,45.90
2023-04-20T04:14:42.694Z,45.90
2023-04-20T04:17:12.025Z,45.80
2023-04-20T04:19:43.531Z,45.90
2023-04-20T04:22:11.281Z,46.00
2023-04-20T04:24:48.727Z,46.00
2023-04-20T04:27:20.736Z,46.00
2023-04-20T04:29:55.356Z,46.00
2023-04-20T04:32:25.149Z,46.00
2023-04-20T04:34:53.355Z,46.10
2023-04-20T04:37:21.688Z,46.10
2023-04-20T04:39:54.925Z,46.10
2023-04-20T04:42:30.086Z,46.20
2023-04-20T04:45:01.953Z,46.20
2023-04-20T04:47:35.379Z,46.20
2023-04-20T04:50:05.565Z,46.20
2023-04-20T04:52:33.800Z,46.30
2023-04-20T04:55:01.458Z,46.30
2023-04-20T04:57:30.453Z,46.30
2023-04-20T04:59:58.090Z,46.40
2023-04-20T05:02:25.958Z,46.40
2023-04-20T05:04:53.859Z,46.50
2023-04-20T05:07:21.548Z,46.50
2023-04-20T05:09:49.177Z,46.50
2023-04-20T05:12:16.832Z,46.50
2023-04-20T05:14:46.098Z,46.50
2023-04-20T05:17:13.790Z,46.50
2023-04-20T05:19:41.465Z,46.50
2023-04-20T05:22:09.137Z,46.50
2023-04-20T05:24:36.799Z,46.60
2023-04-20T05:27:05.037Z,46.60
2023-04-20T05:29:32.954Z,46.60
2023-04-20T05:32:02.236Z,46.70
2023-04-20T05:34:29.942Z,46.70
2023-04-20T05:36:59.238Z,46.70
2023-04-20T05:39:27.224Z,46.80
2023-04-20T05:41:54.897Z,46.90
2023-04-20T05:44:22.541Z,46.80
2023-04-20T05:46:50.283Z,46.80
2023-04-20T05:49:19.514Z,46.90
2023-04-20T05:51:47.422Z,46.90
2023-04-20T05:54:15.099Z,47.00
2023-04-20T05:56:42.774Z,47.00
2023-04-20T05:59:10.483Z,47.00
2023-04-20T06:01:38.120Z,47.00
2023-04-20T06:04:06.024Z,47.10
2023-04-20T06:06:35.431Z,47.10
2023-04-20T06:09:03.844Z,47.10
2023-04-20T06:11:31.515Z,47.20
2023-04-20T06:13:59.192Z,47.20
2023-04-20T06:16:27.070Z,47.10
2023-04-20T06:18:54.911Z,47.80
2023-04-20T06:21:24.374Z,47.20
2023-04-20T06:23:53.457Z,47.20
2023-04-20T06:26:22.013Z,47.40
2023-04-20T06:28:51.788Z,47.40
2023-04-20T06:31:19.469Z,47.40
2023-04-20T06:33:47.179Z,47.40
2023-04-20T06:36:14.842Z,47.50
2023-04-20T06:38:42.531Z,47.50
2023-04-20T06:41:11.514Z,47.50
2023-04-20T06:43:39.296Z,47.50
2023-04-20T06:46:07.058Z,47.40
2023-04-20T06:48:35.063Z,47.50
2023-04-20T06:51:02.790Z,47.60
2023-04-20T06:53:30.459Z,47.60
2023-04-20T06:55:58.807Z,47.70
2023-04-20T06:58:27.783Z,47.60
2023-04-20T07:00:55.450Z,47.60
2023-04-20T07:03:24.139Z,47.60
2023-04-20T07:05:52.141Z,47.60
2023-04-20T07:08:20.074Z,47.60
2023-04-20T07:10:47.743Z,47.70
2023-04-20T07:13:15.573Z,47.70
2023-04-20T07:15:45.756Z,47.80
2023-04-20T07:18:13.441Z,47.80
2023-04-20T07:20:41.189Z,48.50
2023-04-20T07:23:09.028Z,47.90
2023-04-20T07:25:36.695Z,48.00
2023-04-20T07:28:04.380Z,47.90
2023-04-20T07:30:32.178Z,48.00
2023-04-20T07:33:01.212Z,48.10
2023-04-20T07:35:29.042Z,48.10
2023-04-20T07:37:56.786Z,48.00
2023-04-20T07:40:24.732Z,48.10
2023-04-20T07:42:52.388Z,48.10
2023-04-20T07:45:20.211Z,48.10
2023-04-20T07:47:51.364Z,48.10
2023-04-20T07:50:20.584Z,48.00
2023-04-20T07:52:48.267Z,48.10
2023-04-20T07:55:17.225Z,48.10
2023-04-20T07:57:45.053Z,48.10
2023-04-20T08:00:14.975Z,48.10
2023-04-20T08:02:42.719Z,48.10
2023-04-20T08:05:11.130Z,48.10
2023-04-20T08:07:40.586Z,48.10
2023-04-20T08:10:09.153Z,48.20
2023-04-20T08:12:36.859Z,48.30
2023-04-20T08:15:06.571Z,48.20
2023-04-20T08:17:34.459Z,48.30
2023-04-20T08:20:02.216Z,48.40
2023-04-20T08:22:30.653Z,48.40
2023-04-20T08:24:59.634Z,48.40
2023-04-20T08:27:29.543Z,48.40
2023-04-20T08:29:57.263Z,48.40
2023-04-20T08:32:26.486Z,48.40
2023-04-20T08:34:54.348Z,48.50
2023-04-20T08:37:22.079Z,48.50
2023-04-20T08:39:49.730Z,48.60
2023-04-20T08:42:18.716Z,48.60
2023-04-20T08:44:46.390Z,48.60
2023-04-20T08:47:14.965Z,48.60
2023-04-20T08:49:42.626Z,48.70
2023-04-20T08:52:11.159Z,48.70
2023-04-20T08:54:42.953Z,48.70
2023-04-20T08:57:18.566Z,48.70
2023-04-20T08:59:46.218Z,48.70
2023-04-20T09:02:14.429Z,48.70
2023-04-20T09:04:42.584Z,48.70
2023-04-20T09:07:18.410Z,48.80
2023-04-20T09:09:54.826Z,48.90
2023-04-20T09:12:24.658Z,48.80
2023-04-20T09:14:52.466Z,48.90
2023-04-20T09:17:31.236Z,48.90
2023-04-20T09:19:59.112Z,49.00
2023-04-20T09:22:33.143Z,48.90
2023-04-20T09:25:01.162Z,48.80
2023-04-20T09:27:30.201Z,48.90
2023-04-20T09:29:58.712Z,48.90
2023-04-20T09:32:27.889Z,48.90
2023-04-20T09:34:56.028Z,49.00
2023-04-20T09:37:23.821Z,49.10
2023-04-20T09:39:51.587Z,49.00
2023-04-20T09:42:19.302Z,49.10
2023-04-20T09:44:48.417Z,49.10
2023-04-20T09:47:17.748Z,49.20
2023-04-20T09:49:46.481Z,49.10
2023-04-20T09:52:17.787Z,49.20
2023-04-20T09:54:45.706Z,49.20
2023-04-20T09:57:14.064Z,49.10
2023-04-20T09:59:43.099Z,49.10
2023-04-20T10:02:13.116Z,49.00
2023-04-20T10:04:55.093Z,49.00
2023-04-20T10:07:27.085Z,48.80
2023-04-20T10:10:13.625Z,48.80
2023-04-20T10:12:50.640Z,48.50
2023-04-20T10:15:18.402Z,48.60
2023-04-20T10:17:47.545Z,48.70
2023-04-20T10:20:22.645Z,48.70
2023-04-20T10:22:51.130Z,48.70
2023-04-20T10:25:20.398Z,48.80
2023-04-20T10:27:55.286Z,48.80
2023-04-20T10:30:23.569Z,48.80
2023-04-20T10:33:05.872Z,48.90
2023-04-20T10:35:44.600Z,48.90
2023-04-20T10:38:13.577Z,49.00
2023-04-20T10:40:41.271Z,49.00
2023-04-20T10:43:19.350Z,49.00
2023-04-20T10:45:47.024Z,49.00
2023-04-20T10:48:17.877Z,49.00
2023-04-20T10:50:46.012Z,49.00
2023-04-20T10:53:21.324Z,49.10
2023-04-20T10:55:51.457Z,49.10
2023-04-20T10:58:23.318Z,49.00
2023-04-20T11:01:01.066Z,49.00
2023-04-20T11:03:30.920Z,49.10
2023-04-20T11:06:01.407Z,49.30
2023-04-20T11:08:39.648Z,49.40
2023-04-20T11:11:08.728Z,49.50
2023-04-20T11:13:37.487Z,49.50
2023-04-20T11:16:12.182Z,49.70
2023-04-20T11:18:50.178Z,49.70
2023-04-20T11:21:17.849Z,49.60
2023-04-20T11:23:45.595Z,49.70
2023-04-20T11:26:13.315Z,49.70
2023-04-20T11:28:54.524Z,49.70
2023-04-20T11:31:23.815Z,49.50
2023-04-20T11:33:53.141Z,49.60
2023-04-20T11:36:21.558Z,49.60
2023-04-20T11:38:49.250Z,49.60
2023-04-20T11:41:17.549Z,49.50
2023-04-20T11:43:45.525Z,49.50
2023-04-20T11:46:16.904Z,49.40
2023-04-20T11:48:44.871Z,49.30
2023-04-20T11:51:14.248Z,49.50
2023-04-20T11:53:42.163Z,49.50
2023-04-20T11:56:09.830Z,49.30
2023-04-20T11:58:38.332Z,49.40
2023-04-20T12:01:06.707Z,50.00
2023-04-20T12:03:34.637Z,50.10
2023-04-20T12:06:02.599Z,50.40
2023-04-20T12:08:32.099Z,50.60
2023-04-20T12:10:59.821Z,51.20
2023-04-20T12:13:27.521Z,51.60
2023-04-20T12:15:55.328Z,52.00
2023-04-20T12:18:23.218Z,52.60
2023-04-20T12:20:51.487Z,52.80
2023-04-20T12:23:19.200Z,53.10
2023-04-20T12:25:49.248Z,53.20
2023-04-20T12:28:16.986Z,53.60
2023-04-20T12:30:44.789Z,53.50
2023-04-20T12:33:12.540Z,53.50
2023-04-20T12:35:40.293Z,53.90
2023-04-20T12:38:07.981Z,54.20
2023-04-20T12:40:36.005Z,54.00
2023-04-20T12:43:04.990Z,54.40
2023-04-20T12:45:32.721Z,54.50
2023-04-20T12:48:00.773Z,55.10
2023-04-20T12:50:29.018Z,55.70
2023-04-20T12:52:58.377Z,56.00
2023-04-20T12:55:26.360Z,56.00
2023-04-20T12:57:54.077Z,56.60
2023-04-20T13:00:23.234Z,56.00
2023-04-20T13:02:51.257Z,56.50
2023-04-20T13:05:19.768Z,57.10
2023-04-20T13:07:47.482Z,56.80
2023-04-20T13:10:15.235Z,56.60
2023-04-20T13:12:42.975Z,56.30
2023-04-20T13:15:12.741Z,56.60
2023-04-20T13:17:41.934Z,56.60
2023-04-20T13:20:10.703Z,57.10
2023-04-20T13:22:47.040Z,56.60
2023-04-20T13:25:25.005Z,56.80
2023-04-20T13:27:53.991Z,57.30
2023-04-20T13:30:24.284Z,57.00
2023-04-20T13:32:53.683Z,57.20
2023-04-20T13:35:21.650Z,57.10
2023-04-20T13:37:49.295Z,57.00
2023-04-20T13:40:17.025Z,57.30
2023-04-20T13:42:44.755Z,57.20
2023-04-20T13:45:12.894Z,57.30
2023-04-20T13:47:40.630Z,57.80
2023-04-20T13:50:10.890Z,57.40
2023-04-20T13:52:38.584Z,58.60
2023-04-20T13:55:06.750Z,58.10
2023-04-20T13:57:34.443Z,58.40
2023-04-20T14:00:02.277Z,58.10
2023-04-20T14:02:33.314Z,57.90
2023-04-20T14:05:01.045Z,58.30
2023-04-20T14:07:30.047Z,58.60
2023-04-20T14:09:59.731Z,58.30
2023-04-20T14:12:28.371Z,58.60
2023-04-20T14:14:57.875Z,58.40
2023-04-20T14:17:25.693Z,58.00
2023-04-20T14:19:53.422Z,58.10
2023-04-20T14:22:21.140Z,58.00
2023-04-20T14:24:50.158Z,58.10
2023-04-20T14:27:17.863Z,57.40
2023-04-20T14:29:45.597Z,57.50
2023-04-20T14:32:13.747Z,57.00
2023-04-20T14:34:41.435Z,57.40
2023-04-20T14:37:09.641Z,58.10
2023-04-20T14:39:37.359Z,58.40
2023-04-20T14:42:07.489Z,57.90
2023-04-20T14:44:35.292Z,57.70
2023-04-20T14:47:03.300Z,58.00
2023-04-20T14:49:31.095Z,57.80
2023-04-20T14:51:58.796Z,58.00
2023-04-20T14:54:26.504Z,58.00
2023-04-20T14:56:54.191Z,58.10
2023-04-20T14:59:24.462Z,58.80
2023-04-20T15:02:01.735Z,57.90
2023-04-20T15:04:31.045Z,58.10
2023-04-20T15:06:58.862Z,58.50
2023-04-20T15:09:26.651Z,57.50
2023-04-20T15:11:54.442Z,57.20
2023-04-20T15:14:23.449Z,57.20
2023-04-20T15:16:51.944Z,57.60
2023-04-20T15:19:20.240Z,57.90
2023-04-20T15:21:47.970Z,58.40
2023-04-20T15:24:15.771Z,57.70
2023-04-20T15:26:43.581Z,57.40
2023-04-20T15:29:11.247Z,57.60
2023-04-20T15:31:40.587Z,57.60
2023-04-20T15:34:08.284Z,57.50
2023-04-20T15:36:36.028Z,57.60
2023-04-20T15:39:04.654Z,58.30
2023-04-20T15:41:32.362Z,58.00
2023-04-20T15:44:00.276Z,58.00
2023-04-20T15:46:28.254Z,58.00
2023-04-20T15:48:57.303Z,58.10
2023-04-20T15:51:25.028Z,58.00
2023-04-20T15:53:52.790Z,57.80
2023-04-20T15:56:21.995Z,58.60
2023-04-20T15:58:50.148Z,59.00
2023-04-20T16:01:18.054Z,58.30
2023-04-20T16:03:46.557Z,58.50
2023-04-20T16:06:15.711Z,58.60
2023-04-20T16:08:43.449Z,58.70
2023-04-20T16:11:11.098Z,58.60
2023-04-20T16:13:38.830Z,58.50
2023-04-20T16:16:07.016Z,58.20
2023-04-20T16:18:34.939Z,57.60
2023-04-20T16:21:02.671Z,57.50
2023-04-20T16:23:31.896Z,56.80
2023-04-20T16:25:59.669Z,56.50
2023-04-20T16:28:27.404Z,56.00
2023-04-20T16:30:55.104Z,56.10
2023-04-20T16:33:23.231Z,55.60
2023-04-20T16:35:51.074Z,55.50
2023-04-20T16:38:20.060Z,54.60
2023-04-20T16:40:49.192Z,55.00
2023-04-20T16:43:16.843Z,53.90
2023-04-20T16:45:44.517Z,54.20
2023-04-20T16:48:12.261Z,53.80
2023-04-20T16:50:41.571Z,53.10
2023-04-20T16:53:09.957Z,53.70
2023-04-20T16:55:37.663Z,53.60
2023-04-20T16:58:06.857Z,53.80
2023-04-20T17:00:35.331Z,53.80
2023-04-20T17:03:06.572Z,54.60
2023-04-20T17:05:34.453Z,54.30
2023-04-20T17:08:02.126Z,51.90
2023-04-20T17:10:29.787Z,51.90
2023-04-20T17:12:57.479Z,52.50
2023-04-20T17:15:26.874Z,53.20
2023-04-20T17:17:54.574Z,52.80
2023-04-20T17:20:22.563Z,52.80
2023-04-20T17:22:50.276Z,52.60
2023-04-20T17:25:17.991Z,52.80
2023-04-20T17:27:45.665Z,52.40
2023-04-20T17:30:14.366Z,52.60
2023-04-20T17:32:43.567Z,52.80
2023-04-20T17:35:11.302Z,53.00
2023-04-20T17:37:39.032Z,53.20
2023-04-20T17:40:08.216Z,53.50
2023-04-20T17:42:36.044Z,53.70
2023-04-20T17:45:03.797Z,53.90
2023-04-20T17:47:32.563Z,54.20
2023-04-20T17:50:01.704Z,54.40
2023-04-20T17:52:29.392Z,54.60
2023-04-20T17:54:59.865Z,54.80
2023-04-20T17:57:27.652Z,55.00
2023-04-20T17:59:55.493Z,55.10
2023-04-20T18:02:24.100Z,55.30
2023-04-20T18:04:52.096Z,55.60
2023-04-20T18:07:21.479Z,55.70
2023-04-20T18:09:49.186Z,55.90
2023-04-20T18:12:16.934Z,56.00
2023-04-20T18:14:44.604Z,56.20
2023-04-20T18:17:12.266Z,56.30
2023-04-20T18:19:40.805Z,56.50
2023-04-20T18:22:08.898Z,56.70
2023-04-20T18:24:37.978Z,56.80
2023-04-20T18:27:05.723Z,57.00
2023-04-20T18:29:33.382Z,57.10
2023-04-20T18:32:01.406Z,57.20
2023-04-20T18:34:30.907Z,57.50
2023-04-20T18:36:58.877Z,57.60
2023-04-20T18:39:26.616Z,57.90
2023-04-20T18:41:55.737Z,57.90
2023-04-20T18:44:23.488Z,58.00
2023-04-20T18:46:51.362Z,58.00
2023-04-20T18:49:19.084Z,58.10
2023-04-20T18:51:46.766Z,58.20
2023-04-20T18:54:14.429Z,58.20
2023-04-20T18:56:42.142Z,58.30
2023-04-20T18:59:11.496Z,58.40
2023-04-20T19:01:40.529Z,58.60
2023-04-20T19:04:08.683Z,58.60
2023-04-20T19:06:36.633Z,58.80
2023-04-20T19:09:05.971Z,58.90
2023-04-20T19:11:35.645Z,59.00
2023-04-20T19:14:03.308Z,59.00
2023-04-20T19:16:32.607Z,59.20
2023-04-20T19:19:00.496Z,59.20
2023-04-20T19:21:28.357Z,59.30
2023-04-20T19:23:56.521Z,59.40
2023-04-20T19:26:24.884Z,59.40
2023-04-20T19:28:53.325Z,59.50
2023-04-20T19:31:21.096Z,59.50
2023-04-20T19:33:50.279Z,59.60
2023-04-20T19:36:19.103Z,59.60
2023-04-20T19:38:46.825Z,59.60
2023-04-20T19:41:14.505Z,59.70
2023-04-20T19:43:42.157Z,59.70
2023-04-20T19:46:10.042Z,59.80
2023-04-20T19:48:37.760Z,59.80
2023-04-20T19:51:06.762Z,59.90
2023-04-20T19:53:34.494Z,59.90
2023-04-20T19:56:04.250Z,60.00
2023-04-20T19:58:33.975Z,60.00
2023-04-20T20:01:02.104Z,60.10
2023-04-20T20:03:29.979Z,60.10
2023-04-20T20:05:57.802Z,60.20
2023-04-20T20:08:26.833Z,60.20
2023-04-20T20:10:54.512Z,60.30
2023-04-20T20:13:22.195Z,60.40
2023-04-20T20:15:49.916Z,60.40
2023-04-20T20:18:18.468Z,60.50
2023-04-20T20:20:46.172Z,60.60
2023-04-20T20:23:13.867Z,60.70
2023-04-20T20:25:42.864Z,60.70
2023-04-20T20:28:10.557Z,60.90
2023-04-20T20:30:38.254Z,60.80
2023-04-20T20:33:06.022Z,60.80
2023-04-20T20:35:33.766Z,60.90
2023-04-20T20:38:01.419Z,61.00
2023-04-20T20:40:29.108Z,61.30
2023-04-20T20:42:58.463Z,61.10
2023-04-20T20:45:26.332Z,61.20
2023-04-20T20:47:54.175Z,61.30
2023-04-20T20:50:22.681Z,61.20
2023-04-20T20:52:50.398Z,61.30
2023-04-20T20:55:18.052Z,61.30
2023-04-20T20:57:46.472Z,61.30
2023-04-20T21:00:16.531Z,61.50
2023-04-20T21:02:44.373Z,61.50
2023-04-20T21:05:12.260Z,61.50
2023-04-20T21:07:40.188Z,61.70
2023-04-20T21:10:08.630Z,61.80
2023-04-20T21:12:36.425Z,61.80
2023-04-20T21:15:04.165Z,61.80
2023-04-20T21:17:33.218Z,61.90
2023-04-20T21:20:00.889Z,61.90
2023-04-20T21:22:28.547Z,61.90
2023-04-20T21:24:56.248Z,62.00
2023-04-20T21:27:23.961Z,62.10
2023-04-20T21:29:51.639Z,62.00
2023-04-20T21:32:19.367Z,62.10
2023-04-20T21:34:48.436Z,62.20
2023-04-20T21:37:16.101Z,62.30
2023-04-20T21:39:43.836Z,62.20
2023-04-20T21:42:11.683Z,62.30
2023-04-20T21:44:39.366Z,62.40
2023-04-20T21:47:07.042Z,62.40
2023-04-20T21:49:34.705Z,62.40
2023-04-20T21:52:03.785Z,62.40
2023-04-20T21:54:33.268Z,62.60
2023-04-20T21:57:02.434Z,63.30
2023-04-20T21:59:30.164Z,62.60
2023-04-20T22:01:57.840Z,62.60
2023-04-20T22:04:26.804Z,62.70
2023-04-20T22:06:55.427Z,62.70
2023-04-20T22:09:24.840Z,62.80
2023-04-20T22:11:53.578Z,62.70
2023-04-20T22:14:21.449Z,62.80
2023-04-20T22:16:49.132Z,62.80
2023-04-20T22:19:17.500Z,62.90
2023-04-20T22:21:45.290Z,62.90
2023-04-20T22:24:12.987Z,62.90
2023-04-20T22:26:42.131Z,62.90
2023-04-20T22:29:09.914Z,63.00
2023-04-20T22:31:37.953Z,63.00
2023-04-20T22:34:05.709Z,63.10
2023-04-20T22:36:34.990Z,63.10
2023-04-20T22:39:02.712Z,63.10
2023-04-20T22:41:30.424Z,63.10
2023-04-20T22:43:59.415Z,63.20
2023-04-20T22:46:27.245Z,63.30
2023-04-20T22:48:56.573Z,63.50
2023-04-20T22:51:24.245Z,63.70
2023-04-20T22:53:51.925Z,63.60
2023-04-20T22:56:19.581Z,63.70
2023-04-20T22:58:47.245Z,63.70
2023-04-20T23:01:16.304Z,63.70
2023-04-20T23:03:44.246Z,63.80
2023-04-20T23:06:12.152Z,63.80
2023-04-20T23:08:39.847Z,63.70
2023-04-20T23:11:07.542Z,63.90
2023-04-20T23:13:37.051Z,63.90
2023-04-20T23:16:05.017Z,64.00
2023-04-20T23:18:34.411Z,64.00
2023-04-20T23:21:02.084Z,64.00
2023-04-20T23:23:29.755Z,64.10
2023-04-20T23:25:57.454Z,64.00
2023-04-20T23:28:25.129Z,64.00
2023-04-20T23:30:52.780Z,64.10
2023-04-20T23:33:20.598Z,64.10
2023-04-20T23:35:49.634Z,64.10
2023-04-20T23:38:18.050Z,64.00
2023-04-20T23:40:45.913Z,64.10
2023-04-20T23:43:13.584Z,64.20
2023-04-20T23:45:41.318Z,64.20
2023-04-20T23:48:09.078Z,64.20
2023-04-20T23:50:37.686Z,64.10
2023-04-20T23:53:07.429Z,64.20
2023-04-20T23:55:35.136Z,64.30
2023-04-20T23:58:02.790Z,64.30
